Hlavní strana
METAR-TAF:

METAR-TAF

Letiště :

Minot, Severní Dakota, Spojené státy americké

zeměpisná šířka: 48-15-34N, zeměpisná délka: 101-16-49W, výška: 523 m

Aktuální stav počasí

Zpráva byla vytvořena před 36 minutami, v 23:54 UTC
Západojihozápadní vítr 5 kt
Teplota -7°C
Vlhkost vzduchu 86%
Tlak 1023 hPa
Viditelnost: 16.1 km
Jasno

METAR: KMOT 052354Z 25005KT 10SM CLR M07/M09 A3022 RMK AO2 SLP263 T10671094 11022 21067 51032

Čas: 18:30 (00:30 UTC)

Předpověď počasí

Zpráva byla vytvořena před 56 minutami, v 23:34 UTC
Předpověď platná od 06 v 00 UTC do 06 v 24 UTC
vítr z různých směrů 4 kt
Viditelnost: 10 km
Polojasno ve výšce 1500 ft
Od 06 v 1600 UTC
Jihojihozápadní vítr 9 kt
Viditelnost: 10 km
Polojasno ve výšce 1500 ft
Zataženo ve výšce 4000 ft

TAF: KMOT 052334Z 0600/0624 VRB04KT P6SM SCT015 FM061600 21009KT P6SM SCT015 OVC040

Stav a předpovědi počasí z více než 4 000 letišť (zprávy METAR a TAF).

Červené a žluté tečky na mapě představují dostupné meteorologické stanice.

Když kurzor umístíte na tečku, zobrazí se název stanice.

Pak kliknutím zobrazíte stav a předpověď počasí.

Chcete-li změnit mapu, kliknutím na zelené tlačítko se znaménkem +mapu přiblížíte, kliknutím na zelené tlačítko se znaménkem – mapu oddálíte a kliknutím na zelené šipky přejdete na sousední mapy.


METAR-TAF: